sensor_id;sensor_type;location;lat;lon;timestamp;P1;durP1;ratioP1;P2;durP2;ratioP2
60714;SDS011;46564;53.096;8.246;2023-08-06T00:00:16;10.57;;;6.38;;
60714;SDS011;46564;53.096;8.246;2023-08-06T00:05:18;12.48;;;6.30;;
60714;SDS011;46564;53.096;8.246;2023-08-06T00:10:19;13.43;;;7.05;;
60714;SDS011;46564;53.096;8.246;2023-08-06T00:15:21;10.68;;;5.75;;
60714;SDS011;46564;53.096;8.246;2023-08-06T00:20:24;10.48;;;5.93;;
60714;SDS011;46564;53.096;8.246;2023-08-06T00:25:25;14.75;;;6.53;;
60714;SDS011;46564;53.096;8.246;2023-08-06T00:30:27;8.57;;;5.38;;
60714;SDS011;46564;53.096;8.246;2023-08-06T00:35:29;12.07;;;6.05;;
60714;SDS011;46564;53.096;8.246;2023-08-06T00:40:31;11.43;;;6.03;;
60714;SDS011;46564;53.096;8.246;2023-08-06T00:45:36;11.32;;;5.90;;
60714;SDS011;46564;53.096;8.246;2023-08-06T00:50:38;11.10;;;6.13;;
60714;SDS011;46564;53.096;8.246;2023-08-06T00:55:39;13.68;;;6.00;;
60714;SDS011;46564;53.096;8.246;2023-08-06T01:00:41;12.98;;;6.10;;
60714;SDS011;46564;53.096;8.246;2023-08-06T01:05:42;10.75;;;6.45;;
60714;SDS011;46564;53.096;8.246;2023-08-06T01:21:47;12.25;;;5.53;;
60714;SDS011;46564;53.096;8.246;2023-08-06T01:26:51;9.32;;;5.30;;
60714;SDS011;46564;53.096;8.246;2023-08-06T01:32:00;10.38;;;5.35;;
60714;SDS011;46564;53.096;8.246;2023-08-06T01:37:04;9.30;;;4.78;;
60714;SDS011;46564;53.096;8.246;2023-08-06T01:42:06;13.82;;;5.30;;
60714;SDS011;46564;53.096;8.246;2023-08-06T01:47:08;8.13;;;4.05;;
60714;SDS011;46564;53.096;8.246;2023-08-06T01:52:10;8.50;;;4.20;;
60714;SDS011;46564;53.096;8.246;2023-08-06T01:57:11;9.05;;;4.25;;
60714;SDS011;46564;53.096;8.246;2023-08-06T02:02:12;12.35;;;4.13;;
60714;SDS011;46564;53.096;8.246;2023-08-06T02:07:14;8.85;;;4.00;;
60714;SDS011;46564;53.096;8.246;2023-08-06T02:12:15;10.38;;;4.20;;
60714;SDS011;46564;53.096;8.246;2023-08-06T02:17:17;8.75;;;3.95;;
60714;SDS011;46564;53.096;8.246;2023-08-06T02:22:19;13.02;;;4.72;;
60714;SDS011;46564;53.096;8.246;2023-08-06T02:27:20;8.95;;;3.65;;
60714;SDS011;46564;53.096;8.246;2023-08-06T02:32:21;9.52;;;3.58;;
60714;SDS011;46564;53.096;8.246;2023-08-06T02:37:23;7.53;;;3.83;;
60714;SDS011;46564;53.096;8.246;2023-08-06T02:42:24;7.38;;;3.50;;
60714;SDS011;46564;53.096;8.246;2023-08-06T02:47:26;6.93;;;3.25;;
60714;SDS011;46564;53.096;8.246;2023-08-06T02:52:28;6.85;;;3.67;;
60714;SDS011;46564;53.096;8.246;2023-08-06T02:57:29;6.22;;;3.25;;
60714;SDS011;46564;53.096;8.246;2023-08-06T03:02:30;9.15;;;3.58;;
60714;SDS011;46564;53.096;8.246;2023-08-06T03:07:32;8.65;;;3.53;;
60714;SDS011;46564;53.096;8.246;2023-08-06T03:12:33;6.50;;;3.80;;
60714;SDS011;46564;53.096;8.246;2023-08-06T03:17:35;10.75;;;3.60;;
60714;SDS011;46564;53.096;8.246;2023-08-06T03:22:37;8.55;;;4.00;;
60714;SDS011;46564;53.096;8.246;2023-08-06T03:27:38;6.75;;;3.63;;
60714;SDS011;46564;53.096;8.246;2023-08-06T03:32:40;9.13;;;3.90;;
60714;SDS011;46564;53.096;8.246;2023-08-06T03:37:41;6.95;;;3.45;;
60714;SDS011;46564;53.096;8.246;2023-08-06T03:42:43;7.13;;;3.60;;
60714;SDS011;46564;53.096;8.246;2023-08-06T03:47:44;8.95;;;3.67;;
60714;SDS011;46564;53.096;8.246;2023-08-06T03:52:46;8.73;;;3.83;;
60714;SDS011;46564;53.096;8.246;2023-08-06T03:57:48;9.43;;;4.07;;
60714;SDS011;46564;53.096;8.246;2023-08-06T04:02:49;11.27;;;4.45;;
60714;SDS011;46564;53.096;8.246;2023-08-06T04:07:51;12.43;;;4.32;;
60714;SDS011;46564;53.096;8.246;2023-08-06T04:12:52;7.82;;;4.20;;
60714;SDS011;46564;53.096;8.246;2023-08-06T04:17:54;7.63;;;3.83;;
60714;SDS011;46564;53.096;8.246;2023-08-06T04:22:55;7.65;;;3.88;;
60714;SDS011;46564;53.096;8.246;2023-08-06T04:27:56;9.13;;;4.35;;
60714;SDS011;46564;53.096;8.246;2023-08-06T04:32:58;10.15;;;4.18;;
60714;SDS011;46564;53.096;8.246;2023-08-06T04:37:59;9.30;;;4.10;;
60714;SDS011;46564;53.096;8.246;2023-08-06T04:43:01;7.80;;;4.13;;
60714;SDS011;46564;53.096;8.246;2023-08-06T04:48:03;8.07;;;4.28;;
60714;SDS011;46564;53.096;8.246;2023-08-06T04:53:05;7.28;;;4.00;;
60714;SDS011;46564;53.096;8.246;2023-08-06T04:58:06;11.02;;;4.60;;
60714;SDS011;46564;53.096;8.246;2023-08-06T05:03:08;7.68;;;3.70;;
60714;SDS011;46564;53.096;8.246;2023-08-06T05:08:13;7.55;;;3.85;;
60714;SDS011;46564;53.096;8.246;2023-08-06T05:13:15;9.68;;;4.20;;
60714;SDS011;46564;53.096;8.246;2023-08-06T05:18:16;9.73;;;4.78;;
60714;SDS011;46564;53.096;8.246;2023-08-06T05:23:18;8.48;;;4.47;;
60714;SDS011;46564;53.096;8.246;2023-08-06T05:28:19;8.93;;;4.97;;
60714;SDS011;46564;53.096;8.246;2023-08-06T05:33:21;8.77;;;4.78;;
60714;SDS011;46564;53.096;8.246;2023-08-06T05:38:22;9.82;;;5.22;;
60714;SDS011;46564;53.096;8.246;2023-08-06T05:43:24;8.63;;;4.72;;
60714;SDS011;46564;53.096;8.246;2023-08-06T05:48:25;8.43;;;5.10;;
60714;SDS011;46564;53.096;8.246;2023-08-06T05:53:26;8.45;;;4.50;;
60714;SDS011;46564;53.096;8.246;2023-08-06T05:58:28;12.85;;;4.72;;
60714;SDS011;46564;53.096;8.246;2023-08-06T06:03:29;10.73;;;5.25;;
60714;SDS011;46564;53.096;8.246;2023-08-06T06:08:31;11.02;;;5.05;;
60714;SDS011;46564;53.096;8.246;2023-08-06T06:13:32;10.55;;;5.00;;
60714;SDS011;46564;53.096;8.246;2023-08-06T06:18:34;14.15;;;5.00;;
60714;SDS011;46564;53.096;8.246;2023-08-06T06:23:35;8.10;;;4.63;;
60714;SDS011;46564;53.096;8.246;2023-08-06T06:28:37;9.45;;;4.55;;
60714;SDS011;46564;53.096;8.246;2023-08-06T06:33:38;9.52;;;5.53;;
60714;SDS011;46564;53.096;8.246;2023-08-06T06:38:40;10.05;;;4.85;;
60714;SDS011;46564;53.096;8.246;2023-08-06T06:43:41;10.50;;;5.18;;
60714;SDS011;46564;53.096;8.246;2023-08-06T06:48:43;8.27;;;4.72;;
60714;SDS011;46564;53.096;8.246;2023-08-06T06:53:45;10.63;;;4.63;;
60714;SDS011;46564;53.096;8.246;2023-08-06T06:58:47;8.20;;;4.50;;
60714;SDS011;46564;53.096;8.246;2023-08-06T07:03:48;9.00;;;5.07;;
60714;SDS011;46564;53.096;8.246;2023-08-06T07:08:49;8.27;;;4.55;;
60714;SDS011;46564;53.096;8.246;2023-08-06T07:13:57;10.00;;;4.20;;
60714;SDS011;46564;53.096;8.246;2023-08-06T07:18:59;6.85;;;3.80;;
60714;SDS011;46564;53.096;8.246;2023-08-06T07:24:01;7.82;;;3.92;;
60714;SDS011;46564;53.096;8.246;2023-08-06T07:29:03;6.28;;;3.67;;
60714;SDS011;46564;53.096;8.246;2023-08-06T07:34:04;7.35;;;3.83;;
60714;SDS011;46564;53.096;8.246;2023-08-06T07:39:06;7.30;;;3.53;;
60714;SDS011;46564;53.096;8.246;2023-08-06T07:44:08;6.13;;;3.58;;
60714;SDS011;46564;53.096;8.246;2023-08-06T07:49:09;6.70;;;3.28;;
60714;SDS011;46564;53.096;8.246;2023-08-06T07:54:10;7.18;;;3.10;;
60714;SDS011;46564;53.096;8.246;2023-08-06T07:59:12;7.40;;;3.20;;
60714;SDS011;46564;53.096;8.246;2023-08-06T08:04:14;8.82;;;3.30;;
60714;SDS011;46564;53.096;8.246;2023-08-06T08:09:15;6.10;;;2.70;;
60714;SDS011;46564;53.096;8.246;2023-08-06T08:14:17;6.07;;;2.92;;
60714;SDS011;46564;53.096;8.246;2023-08-06T08:19:19;7.15;;;3.83;;
60714;SDS011;46564;53.096;8.246;2023-08-06T08:24:21;6.18;;;3.08;;
60714;SDS011;46564;53.096;8.246;2023-08-06T08:29:22;5.30;;;2.92;;
60714;SDS011;46564;53.096;8.246;2023-08-06T08:34:24;7.65;;;3.33;;
60714;SDS011;46564;53.096;8.246;2023-08-06T08:39:25;8.48;;;3.42;;
60714;SDS011;46564;53.096;8.246;2023-08-06T08:44:27;10.23;;;3.72;;
60714;SDS011;46564;53.096;8.246;2023-08-06T08:49:28;7.78;;;3.20;;
60714;SDS011;46564;53.096;8.246;2023-08-06T08:54:30;7.63;;;3.17;;
60714;SDS011;46564;53.096;8.246;2023-08-06T08:59:33;10.07;;;5.18;;
60714;SDS011;46564;53.096;8.246;2023-08-06T09:04:35;10.27;;;6.05;;
60714;SDS011;46564;53.096;8.246;2023-08-06T09:09:36;9.32;;;5.97;;
60714;SDS011;46564;53.096;8.246;2023-08-06T09:14:40;11.02;;;5.40;;
60714;SDS011;46564;53.096;8.246;2023-08-06T09:19:42;9.73;;;6.20;;
60714;SDS011;46564;53.096;8.246;2023-08-06T09:24:44;12.43;;;6.78;;
60714;SDS011;46564;53.096;8.246;2023-08-06T09:29:46;12.82;;;6.95;;
60714;SDS011;46564;53.096;8.246;2023-08-06T09:34:47;10.27;;;6.15;;
60714;SDS011;46564;53.096;8.246;2023-08-06T09:39:57;11.40;;;6.57;;
60714;SDS011;46564;53.096;8.246;2023-08-06T09:45:06;10.13;;;6.03;;
60714;SDS011;46564;53.096;8.246;2023-08-06T09:50:15;9.45;;;5.57;;
60714;SDS011;46564;53.096;8.246;2023-08-06T09:55:18;10.30;;;6.55;;
60714;SDS011;46564;53.096;8.246;2023-08-06T10:00:23;5.72;;;3.25;;
60714;SDS011;46564;53.096;8.246;2023-08-06T10:05:25;6.65;;;3.42;;
60714;SDS011;46564;53.096;8.246;2023-08-06T10:10:27;5.50;;;3.08;;
60714;SDS011;46564;53.096;8.246;2023-08-06T10:15:31;9.55;;;4.38;;
60714;SDS011;46564;53.096;8.246;2023-08-06T10:20:34;7.55;;;4.15;;
60714;SDS011;46564;53.096;8.246;2023-08-06T10:25:39;5.60;;;2.92;;
60714;SDS011;46564;53.096;8.246;2023-08-06T10:30:42;7.75;;;4.50;;
60714;SDS011;46564;53.096;8.246;2023-08-06T10:35:47;6.18;;;3.67;;
60714;SDS011;46564;53.096;8.246;2023-08-06T10:45:55;6.75;;;4.10;;
60714;SDS011;46564;53.096;8.246;2023-08-06T10:50:57;8.45;;;5.00;;
60714;SDS011;46564;53.096;8.246;2023-08-06T10:56:00;5.07;;;2.97;;
60714;SDS011;46564;53.096;8.246;2023-08-06T11:01:03;2.75;;;1.77;;
60714;SDS011;46564;53.096;8.246;2023-08-06T11:06:06;3.80;;;2.03;;
60714;SDS011;46564;53.096;8.246;2023-08-06T11:11:11;5.60;;;2.03;;
60714;SDS011;46564;53.096;8.246;2023-08-06T11:16:17;2.10;;;1.38;;
60714;SDS011;46564;53.096;8.246;2023-08-06T11:21:23;3.33;;;1.30;;
60714;SDS011;46564;53.096;8.246;2023-08-06T11:26:24;2.83;;;1.23;;
60714;SDS011;46564;53.096;8.246;2023-08-06T11:31:26;3.37;;;1.20;;
60714;SDS011;46564;53.096;8.246;2023-08-06T11:36:33;3.35;;;1.70;;
60714;SDS011;46564;53.096;8.246;2023-08-06T11:41:37;2.17;;;1.15;;
60714;SDS011;46564;53.096;8.246;2023-08-06T11:46:52;2.33;;;1.02;;
60714;SDS011;46564;53.096;8.246;2023-08-06T11:51:54;3.00;;;1.42;;
60714;SDS011;46564;53.096;8.246;2023-08-06T11:56:57;5.07;;;1.70;;
60714;SDS011;46564;53.096;8.246;2023-08-06T12:02:03;2.47;;;1.52;;
60714;SDS011;46564;53.096;8.246;2023-08-06T12:07:05;3.58;;;1.98;;
60714;SDS011;46564;53.096;8.246;2023-08-06T12:12:07;2.72;;;1.65;;
60714;SDS011;46564;53.096;8.246;2023-08-06T12:17:08;4.15;;;1.85;;
60714;SDS011;46564;53.096;8.246;2023-08-06T12:22:10;3.70;;;1.65;;
60714;SDS011;46564;53.096;8.246;2023-08-06T12:27:11;2.90;;;1.58;;
60714;SDS011;46564;53.096;8.246;2023-08-06T12:32:14;6.38;;;1.60;;
60714;SDS011;46564;53.096;8.246;2023-08-06T12:37:16;2.20;;;1.23;;
60714;SDS011;46564;53.096;8.246;2023-08-06T12:42:18;3.38;;;1.52;;
60714;SDS011;46564;53.096;8.246;2023-08-06T12:47:19;2.53;;;1.52;;
60714;SDS011;46564;53.096;8.246;2023-08-06T12:52:21;3.53;;;1.70;;
60714;SDS011;46564;53.096;8.246;2023-08-06T12:57:22;2.92;;;1.60;;
60714;SDS011;46564;53.096;8.246;2023-08-06T13:02:24;4.25;;;1.80;;
60714;SDS011;46564;53.096;8.246;2023-08-06T13:07:25;2.85;;;1.55;;
60714;SDS011;46564;53.096;8.246;2023-08-06T13:12:27;3.25;;;1.40;;
60714;SDS011;46564;53.096;8.246;2023-08-06T13:17:28;4.25;;;1.50;;
60714;SDS011;46564;53.096;8.246;2023-08-06T13:22:30;6.47;;;1.55;;
60714;SDS011;46564;53.096;8.246;2023-08-06T13:27:31;3.28;;;1.30;;
60714;SDS011;46564;53.096;8.246;2023-08-06T13:32:33;4.65;;;1.65;;
60714;SDS011;46564;53.096;8.246;2023-08-06T13:37:34;3.58;;;1.67;;
60714;SDS011;46564;53.096;8.246;2023-08-06T13:42:36;4.10;;;1.50;;
60714;SDS011;46564;53.096;8.246;2023-08-06T13:47:37;2.88;;;1.52;;
60714;SDS011;46564;53.096;8.246;2023-08-06T13:52:39;3.65;;;1.50;;
60714;SDS011;46564;53.096;8.246;2023-08-06T13:57:41;3.30;;;1.30;;
60714;SDS011;46564;53.096;8.246;2023-08-06T14:02:42;4.95;;;1.60;;
60714;SDS011;46564;53.096;8.246;2023-08-06T14:07:44;4.82;;;1.35;;
60714;SDS011;46564;53.096;8.246;2023-08-06T14:12:45;5.63;;;1.73;;
60714;SDS011;46564;53.096;8.246;2023-08-06T14:18:06;3.25;;;1.70;;
60714;SDS011;46564;53.096;8.246;2023-08-06T14:23:08;2.70;;;1.65;;
60714;SDS011;46564;53.096;8.246;2023-08-06T14:28:10;3.80;;;1.77;;
60714;SDS011;46564;53.096;8.246;2023-08-06T14:33:11;4.32;;;1.90;;
60714;SDS011;46564;53.096;8.246;2023-08-06T14:38:26;4.10;;;1.50;;
60714;SDS011;46564;53.096;8.246;2023-08-06T14:43:28;3.35;;;1.80;;
60714;SDS011;46564;53.096;8.246;2023-08-06T14:48:32;2.75;;;1.60;;
60714;SDS011;46564;53.096;8.246;2023-08-06T14:53:34;3.92;;;1.88;;
60714;SDS011;46564;53.096;8.246;2023-08-06T14:58:35;4.15;;;1.90;;
60714;SDS011;46564;53.096;8.246;2023-08-06T15:03:37;4.90;;;1.73;;
60714;SDS011;46564;53.096;8.246;2023-08-06T15:08:38;4.63;;;2.15;;
60714;SDS011;46564;53.096;8.246;2023-08-06T15:13:40;3.67;;;1.90;;
60714;SDS011;46564;53.096;8.246;2023-08-06T15:18:41;3.15;;;1.80;;
60714;SDS011;46564;53.096;8.246;2023-08-06T15:23:43;6.30;;;2.20;;
60714;SDS011;46564;53.096;8.246;2023-08-06T15:28:44;5.00;;;1.85;;
60714;SDS011;46564;53.096;8.246;2023-08-06T15:33:46;7.00;;;2.15;;
60714;SDS011;46564;53.096;8.246;2023-08-06T15:38:47;4.80;;;2.33;;
60714;SDS011;46564;53.096;8.246;2023-08-06T15:43:49;5.43;;;2.55;;
60714;SDS011;46564;53.096;8.246;2023-08-06T15:48:51;5.53;;;2.40;;
60714;SDS011;46564;53.096;8.246;2023-08-06T15:53:52;8.43;;;2.70;;
60714;SDS011;46564;53.096;8.246;2023-08-06T15:58:54;5.57;;;2.20;;
60714;SDS011;46564;53.096;8.246;2023-08-06T16:03:56;6.18;;;2.55;;
60714;SDS011;46564;53.096;8.246;2023-08-06T16:08:57;5.22;;;2.15;;
60714;SDS011;46564;53.096;8.246;2023-08-06T16:13:58;10.15;;;2.42;;
60714;SDS011;46564;53.096;8.246;2023-08-06T16:19:03;5.22;;;2.22;;
60714;SDS011;46564;53.096;8.246;2023-08-06T16:24:04;6.97;;;2.15;;
60714;SDS011;46564;53.096;8.246;2023-08-06T16:29:06;4.95;;;2.30;;
60714;SDS011;46564;53.096;8.246;2023-08-06T16:34:07;5.15;;;2.40;;
60714;SDS011;46564;53.096;8.246;2023-08-06T16:39:09;5.40;;;2.05;;
60714;SDS011;46564;53.096;8.246;2023-08-06T16:44:10;7.57;;;2.58;;
60714;SDS011;46564;53.096;8.246;2023-08-06T16:49:12;4.80;;;1.88;;
60714;SDS011;46564;53.096;8.246;2023-08-06T16:54:13;6.30;;;2.03;;
60714;SDS011;46564;53.096;8.246;2023-08-06T16:59:15;4.55;;;2.38;;
60714;SDS011;46564;53.096;8.246;2023-08-06T17:04:16;4.88;;;2.35;;
60714;SDS011;46564;53.096;8.246;2023-08-06T17:09:17;11.68;;;3.35;;
60714;SDS011;46564;53.096;8.246;2023-08-06T17:14:19;6.47;;;2.25;;
60714;SDS011;46564;53.096;8.246;2023-08-06T17:19:20;6.60;;;2.40;;
60714;SDS011;46564;53.096;8.246;2023-08-06T17:24:22;6.50;;;2.90;;
60714;SDS011;46564;53.096;8.246;2023-08-06T17:29:24;9.20;;;2.88;;
60714;SDS011;46564;53.096;8.246;2023-08-06T17:34:26;6.78;;;2.80;;
60714;SDS011;46564;53.096;8.246;2023-08-06T17:39:28;8.00;;;3.22;;
60714;SDS011;46564;53.096;8.246;2023-08-06T17:44:30;5.82;;;2.60;;
60714;SDS011;46564;53.096;8.246;2023-08-06T17:49:32;7.32;;;2.60;;
60714;SDS011;46564;53.096;8.246;2023-08-06T17:54:34;4.13;;;2.03;;
60714;SDS011;46564;53.096;8.246;2023-08-06T17:59:35;6.75;;;2.22;;
60714;SDS011;46564;53.096;8.246;2023-08-06T18:04:37;4.00;;;2.15;;
60714;SDS011;46564;53.096;8.246;2023-08-06T18:09:44;5.55;;;2.33;;
60714;SDS011;46564;53.096;8.246;2023-08-06T18:15:08;6.30;;;2.03;;
60714;SDS011;46564;53.096;8.246;2023-08-06T18:20:13;8.15;;;2.33;;
60714;SDS011;46564;53.096;8.246;2023-08-06T18:25:14;6.47;;;1.98;;
60714;SDS011;46564;53.096;8.246;2023-08-06T18:30:15;4.53;;;2.10;;
60714;SDS011;46564;53.096;8.246;2023-08-06T18:35:17;4.38;;;1.77;;
60714;SDS011;46564;53.096;8.246;2023-08-06T18:40:18;5.82;;;1.73;;
60714;SDS011;46564;53.096;8.246;2023-08-06T18:45:20;8.15;;;2.42;;
60714;SDS011;46564;53.096;8.246;2023-08-06T18:50:22;9.18;;;2.00;;
60714;SDS011;46564;53.096;8.246;2023-08-06T18:55:23;5.03;;;1.63;;
60714;SDS011;46564;53.096;8.246;2023-08-06T19:00:24;4.95;;;1.80;;
60714;SDS011;46564;53.096;8.246;2023-08-06T19:05:26;2.35;;;1.50;;
60714;SDS011;46564;53.096;8.246;2023-08-06T19:10:28;5.80;;;2.28;;
60714;SDS011;46564;53.096;8.246;2023-08-06T19:15:29;5.35;;;2.20;;
60714;SDS011;46564;53.096;8.246;2023-08-06T19:20:31;5.18;;;2.30;;
60714;SDS011;46564;53.096;8.246;2023-08-06T19:25:39;6.75;;;2.65;;
60714;SDS011;46564;53.096;8.246;2023-08-06T19:30:42;4.43;;;1.75;;
60714;SDS011;46564;53.096;8.246;2023-08-06T19:35:44;5.32;;;1.80;;
60714;SDS011;46564;53.096;8.246;2023-08-06T19:40:50;4.32;;;1.95;;
60714;SDS011;46564;53.096;8.246;2023-08-06T19:45:52;6.53;;;2.13;;
60714;SDS011;46564;53.096;8.246;2023-08-06T19:50:54;4.82;;;2.78;;
60714;SDS011;46564;53.096;8.246;2023-08-06T19:56:01;6.38;;;2.08;;
60714;SDS011;46564;53.096;8.246;2023-08-06T20:01:04;5.00;;;2.13;;
60714;SDS011;46564;53.096;8.246;2023-08-06T20:06:06;8.73;;;1.92;;
60714;SDS011;46564;53.096;8.246;2023-08-06T20:11:07;6.97;;;2.50;;
60714;SDS011;46564;53.096;8.246;2023-08-06T20:16:09;10.40;;;2.40;;
60714;SDS011;46564;53.096;8.246;2023-08-06T20:21:10;9.68;;;2.30;;
60714;SDS011;46564;53.096;8.246;2023-08-06T20:26:12;6.85;;;2.00;;
60714;SDS011;46564;53.096;8.246;2023-08-06T20:31:13;5.63;;;2.05;;
60714;SDS011;46564;53.096;8.246;2023-08-06T20:36:15;6.60;;;2.03;;
60714;SDS011;46564;53.096;8.246;2023-08-06T20:41:16;5.32;;;2.40;;
60714;SDS011;46564;53.096;8.246;2023-08-06T20:46:18;7.38;;;2.53;;
60714;SDS011;46564;53.096;8.246;2023-08-06T20:51:20;5.57;;;1.95;;
60714;SDS011;46564;53.096;8.246;2023-08-06T20:56:21;5.82;;;2.22;;
60714;SDS011;46564;53.096;8.246;2023-08-06T21:01:23;6.20;;;2.10;;
60714;SDS011;46564;53.096;8.246;2023-08-06T21:06:25;7.18;;;2.20;;
60714;SDS011;46564;53.096;8.246;2023-08-06T21:11:26;9.50;;;3.08;;
60714;SDS011;46564;53.096;8.246;2023-08-06T21:16:27;7.32;;;2.40;;
60714;SDS011;46564;53.096;8.246;2023-08-06T21:21:30;6.75;;;2.13;;
60714;SDS011;46564;53.096;8.246;2023-08-06T21:26:31;7.22;;;2.40;;
60714;SDS011;46564;53.096;8.246;2023-08-06T21:31:33;5.85;;;2.42;;
60714;SDS011;46564;53.096;8.246;2023-08-06T21:36:35;3.85;;;1.85;;
60714;SDS011;46564;53.096;8.246;2023-08-06T21:41:36;5.63;;;2.47;;
60714;SDS011;46564;53.096;8.246;2023-08-06T21:46:38;10.27;;;2.25;;
60714;SDS011;46564;53.096;8.246;2023-08-06T21:51:40;6.15;;;2.47;;
60714;SDS011;46564;53.096;8.246;2023-08-06T21:56:44;8.00;;;3.22;;
60714;SDS011;46564;53.096;8.246;2023-08-06T22:01:46;5.78;;;2.10;;
60714;SDS011;46564;53.096;8.246;2023-08-06T22:06:48;5.07;;;2.28;;
60714;SDS011;46564;53.096;8.246;2023-08-06T22:11:51;10.25;;;3.13;;
60714;SDS011;46564;53.096;8.246;2023-08-06T22:16:53;6.03;;;2.25;;
60714;SDS011;46564;53.096;8.246;2023-08-06T22:21:55;6.78;;;2.60;;
60714;SDS011;46564;53.096;8.246;2023-08-06T22:26:57;8.70;;;2.70;;
60714;SDS011;46564;53.096;8.246;2023-08-06T22:31:59;6.57;;;2.30;;
60714;SDS011;46564;53.096;8.246;2023-08-06T22:37:00;5.40;;;2.42;;
60714;SDS011;46564;53.096;8.246;2023-08-06T22:42:02;10.27;;;2.60;;
60714;SDS011;46564;53.096;8.246;2023-08-06T22:47:04;10.95;;;2.40;;
60714;SDS011;46564;53.096;8.246;2023-08-06T22:52:06;8.57;;;2.97;;
60714;SDS011;46564;53.096;8.246;2023-08-06T22:57:08;7.57;;;2.63;;
60714;SDS011;46564;53.096;8.246;2023-08-06T23:02:09;6.68;;;2.65;;
60714;SDS011;46564;53.096;8.246;2023-08-06T23:07:11;7.88;;;2.65;;
60714;SDS011;46564;53.096;8.246;2023-08-06T23:12:13;6.40;;;2.33;;
60714;SDS011;46564;53.096;8.246;2023-08-06T23:17:14;8.25;;;2.95;;
60714;SDS011;46564;53.096;8.246;2023-08-06T23:27:17;8.15;;;3.17;;
60714;SDS011;46564;53.096;8.246;2023-08-06T23:37:20;12.13;;;3.38;;
60714;SDS011;46564;53.096;8.246;2023-08-06T23:47:23;8.55;;;3.58;;
60714;SDS011;46564;53.096;8.246;2023-08-06T23:52:25;8.48;;;3.47;;
60714;SDS011;46564;53.096;8.246;2023-08-06T23:57:27;10.35;;;3.72;;
